RYR980 EDDF-EDDM
Flight info
| Callsign | RYR980 |
|---|---|
| Flight time | N/A |
| Altitude | 23000 |
| Route | CINDY8S/18 CINDY Z74 HAREM T104 ROKIL ROKIL1B |
| Aircraft | B738/M-SDE2E3FGHIRWXY/LB1 |
Departure
| Time | 2026-05-05 10:09 |
|---|---|
| Airport | Frankfurt Main Airport (EDDF) |
Arrival
| Time | N/A |
|---|---|
| Airport | Munich Airport (EDDM) |
| Time | Latitude | Longitude | Altitude | Speed | Heading |
|---|---|---|---|---|---|
| 2026-05-05 09:52 | 50.03632 | 8.53870 | 344 ft | 0 kts | 160° |
| 2026-05-05 10:01 | 50.03591 | 8.53897 | 343 ft | 9 kts | 142° |
| 2026-05-05 10:01 | 50.03584 | 8.53988 | 343 ft | 16 kts | 79° |
| 2026-05-05 10:01 | 50.03615 | 8.54130 | 344 ft | 0 kts | 68° |
| 2026-05-05 10:04 | 50.03617 | 8.54136 | 344 ft | 6 kts | 68° |
| 2026-05-05 10:05 | 50.03645 | 8.54260 | 345 ft | 18 kts | 68° |
| 2026-05-05 10:05 | 50.03743 | 8.54357 | 346 ft | 19 kts | 339° |
| 2026-05-05 10:05 | 50.03793 | 8.54209 | 347 ft | 17 kts | 257° |
| 2026-05-05 10:05 | 50.03728 | 8.53940 | 345 ft | 27 kts | 248° |
| 2026-05-05 10:06 | 50.03659 | 8.53632 | 344 ft | 32 kts | 251° |
| 2026-05-05 10:06 | 50.03582 | 8.53323 | 342 ft | 13 kts | 250° |
| 2026-05-05 10:06 | 50.03580 | 8.53317 | 342 ft | 5 kts | 250° |
| 2026-05-05 10:06 | 50.03548 | 8.53181 | 341 ft | 11 kts | 250° |
| 2026-05-05 10:07 | 50.03489 | 8.52939 | 340 ft | 32 kts | 249° |
| 2026-05-05 10:07 | 50.03424 | 8.52688 | 339 ft | 19 kts | 242° |
| 2026-05-05 10:07 | 50.03307 | 8.52599 | 338 ft | 17 kts | 178° |
| 2026-05-05 10:07 | 50.03282 | 8.52601 | 338 ft | 0 kts | 180° |
| 2026-05-05 10:08 | 50.03139 | 8.52600 | 338 ft | 54 kts | 181° |
| 2026-05-05 10:08 | 50.02555 | 8.52593 | 336 ft | 116 kts | 180° |
| 2026-05-05 10:08 | 50.01608 | 8.52589 | 350 ft | 168 kts | 181° |
| 2026-05-05 10:09 | 50.00358 | 8.52566 | 1029 ft | 182 kts | 182° |
| 2026-05-05 10:09 | 49.99233 | 8.52531 | 2039 ft | 174 kts | 182° |
| 2026-05-05 10:09 | 49.97996 | 8.52522 | 2629 ft | 186 kts | 179° |
| 2026-05-05 10:09 | 49.96710 | 8.53038 | 3152 ft | 203 kts | 149° |
| 2026-05-05 10:10 | 49.95743 | 8.54715 | 3716 ft | 218 kts | 121° |
| 2026-05-05 10:10 | 49.95022 | 8.56860 | 4262 ft | 235 kts | 118° |
| 2026-05-05 10:10 | 49.94283 | 8.59222 | 5035 ft | 244 kts | 112° |
| 2026-05-05 10:10 | 49.93882 | 8.61756 | 5850 ft | 251 kts | 97° |
| 2026-05-05 10:11 | 49.93779 | 8.64563 | 6501 ft | 266 kts | 93° |
| 2026-05-05 10:11 | 49.93681 | 8.67471 | 7178 ft | 278 kts | 101° |
| 2026-05-05 10:11 | 49.92952 | 8.70214 | 8046 ft | 278 kts | 130° |
| 2026-05-05 10:11 | 49.91520 | 8.72172 | 8966 ft | 278 kts | 147° |
| 2026-05-05 10:12 | 49.89890 | 8.73833 | 9886 ft | 280 kts | 148° |
| 2026-05-05 10:12 | 49.88308 | 8.75671 | 10540 ft | 292 kts | 137° |
| 2026-05-05 10:12 | 49.87121 | 8.78105 | 11010 ft | 310 kts | 122° |
| 2026-05-05 10:12 | 49.86301 | 8.80466 | 11398 ft | 323 kts | 118° |
| 2026-05-05 10:13 | 49.85169 | 8.83981 | 11927 ft | 340 kts | 118° |
| 2026-05-05 10:13 | 49.84305 | 8.86591 | 12264 ft | 353 kts | 119° |
| 2026-05-05 10:13 | 49.83275 | 8.89581 | 12675 ft | 365 kts | 120° |
| 2026-05-05 10:13 | 49.82646 | 8.91358 | 13057 ft | 368 kts | 121° |
| 2026-05-05 10:14 | 49.81599 | 8.94270 | 13708 ft | 371 kts | 121° |
| 2026-05-05 10:14 | 49.80765 | 8.96565 | 14207 ft | 374 kts | 121° |
| 2026-05-05 10:14 | 49.79149 | 9.00986 | 15219 ft | 378 kts | 121° |
| 2026-05-05 10:14 | 49.78188 | 9.03627 | 15782 ft | 380 kts | 121° |
| 2026-05-05 10:15 | 49.77114 | 9.06810 | 16402 ft | 385 kts | 118° |
| 2026-05-05 10:15 | 49.76067 | 9.10644 | 17139 ft | 390 kts | 112° |
| 2026-05-05 10:15 | 49.75265 | 9.14465 | 17814 ft | 394 kts | 109° |
| 2026-05-05 10:15 | 49.74541 | 9.18458 | 18455 ft | 398 kts | 110° |
| 2026-05-05 10:16 | 49.73497 | 9.22166 | 19053 ft | 398 kts | 123° |
| 2026-05-05 10:16 | 49.71941 | 9.25510 | 19668 ft | 398 kts | 133° |
| 2026-05-05 10:16 | 49.69996 | 9.28561 | 20245 ft | 402 kts | 138° |
| 2026-05-05 10:16 | 49.68087 | 9.31452 | 20855 ft | 406 kts | 137° |
| 2026-05-05 10:17 | 49.66230 | 9.34350 | 21419 ft | 409 kts | 136° |
| 2026-05-05 10:17 | 49.64737 | 9.36749 | 21850 ft | 413 kts | 135° |
| 2026-05-05 10:17 | 49.63494 | 9.38792 | 22179 ft | 416 kts | 135° |